Startpagina
METAR-TAF:

METAR-TAF

Vliegvelden :

Tiree, Schotland

breedte: 56-30N, lengte: 006-53W, hoogte: 12 m

Actueel weer

Dit bericht is 22 minuten geleden gemaakt, om 06:20 UTC
Wind 10 kt uit het zuidzuidwesten
Temperatuur 8°C
Vochtigheid 100%
Druk 1001 hPa
Zicht: 7000 m
lichte regen

METAR: EGPU 220620Z AUTO 20010KT 7000 -RA BKN002/// BKN013/// 08/08 Q1001

Tijdstip: 07:42 (06:42 UTC)

Verwachting

Dit bericht is 16 uur en het 48 minuten geleden gemaakt, om 13:54 UTC
Verwachting geldig van 21 om 15 UTC tot 21 om 18 UTC
Wind 13 kt uit het zuiden
Zicht 10 km of meer
Weinig wolken op 3500 ft

TAF: EGPU 211354Z 2115/2118 17013KT 9999 FEW035

Waarnemingen en weersverwachtingen van meer dan 4000 vliegvelden (METAR en TAF).

De beschikbare stations zijn de gele en rode punten op de kaart.

Ga met uw muis naar het station om de naam te zien.

Klik dan om waarnemingen en weersverwachtingen te zien.

kaart wijzigen: klik op de groene knoppen met een zwart kruis om in te zoomen, op de groene knop met een streepje om uit te zoomen of op de groene pijlen voor aangrenzende kaarten.


METAR-TAF: